Pakpattan Weather



Pakpattan's Current Weather

Temprature 29.51o clear sky

clear sky

Rain: 0 %

Min Temprature29.51o
Max Temprature29.51o
Humidity60
Wind Speed2.98 m/h
Sun Rise05:56:43
Sun Set17:59:05
Current Time: 26-Sep-2022 08:45:48
Lat/Lon: 30.341, 73.3866




Pakpattan's Geo Location



Pakpattan's Weather Forecast

Time Overall Temp Min Temp Max Temp Humidity Wind Speed Rain
26-Sep-2022 (Mon)
11:00:00 clear sky 29.120 29.120 33.890 62 1.08 m/h 0 %
14:00:00 clear sky 33.320 33.320 36.610 44 1.09 m/h 0 %
17:00:00 clear sky 35.480 35.480 35.480 32 1.31 m/h 0 %
20:00:00 light rain 29.420 29.420 29.420 48 3.04 m/h 16 %
23:00:00 clear sky 27.470 27.470 27.470 58 2.63 m/h 0 %
27-Sep-2022 (Tue)
02:00:00 clear sky 26.280 26.280 26.280 64 2.43 m/h 0 %
05:00:00 clear sky 25.530 25.530 25.530 70 2.53 m/h 0 %
08:00:00 clear sky 29.240 29.240 29.240 55 2.06 m/h 0 %
11:00:00 clear sky 35.210 35.210 35.210 31 2.63 m/h 0 %
14:00:00 clear sky 37.450 37.450 37.450 23 3.71 m/h 0 %
17:00:00 clear sky 36.080 36.080 36.080 25 1.67 m/h 0 %
20:00:00 few clouds 30.060 30.060 30.060 36 1.08 m/h 0 %
23:00:00 few clouds 27.500 27.500 27.500 47 2.85 m/h 0 %
28-Sep-2022 (Wed)
02:00:00 clear sky 26.630 26.630 26.630 50 1.94 m/h 0 %
05:00:00 clear sky 25.920 25.920 25.920 50 1.09 m/h 0 %
08:00:00 clear sky 30.050 30.050 30.050 36 2.68 m/h 0 %
11:00:00 clear sky 35.970 35.970 35.970 24 4.32 m/h 0 %
14:00:00 clear sky 38.050 38.050 38.050 20 4.09 m/h 0 %
17:00:00 clear sky 36.000 36.000 36.000 23 3.38 m/h 0 %
20:00:00 clear sky 30.440 30.440 30.440 29 3.21 m/h 0 %
23:00:00 clear sky 28.400 28.400 28.400 34 2.96 m/h 0 %
29-Sep-2022 (Thu)
02:00:00 clear sky 26.160 26.160 26.160 39 1.62 m/h 0 %
05:00:00 clear sky 25.360 25.360 25.360 40 0.92 m/h 0 %
08:00:00 clear sky 29.570 29.570 29.570 29 2.36 m/h 0 %
11:00:00 clear sky 35.840 35.840 35.840 23 3.98 m/h 0 %
14:00:00 clear sky 37.910 37.910 37.910 20 3.84 m/h 0 %
17:00:00 clear sky 35.870 35.870 35.870 23 3.62 m/h 0 %
20:00:00 clear sky 30.360 30.360 30.360 29 3.62 m/h 0 %
23:00:00 clear sky 28.200 28.200 28.200 33 3.36 m/h 0 %
30-Sep-2022 (Fri)
02:00:00 clear sky 26.360 26.360 26.360 36 3.03 m/h 0 %
05:00:00 clear sky 24.520 24.520 24.520 37 1.58 m/h 0 %
08:00:00 clear sky 28.860 28.860 28.860 30 2.59 m/h 0 %
11:00:00 clear sky 36.040 36.040 36.040 23 4.17 m/h 0 %
14:00:00 clear sky 38.120 38.120 38.120 19 4.18 m/h 0 %
17:00:00 clear sky 35.880 35.880 35.880 22 3.09 m/h 0 %
20:00:00 clear sky 30.310 30.310 30.310 29 3.25 m/h 0 %
23:00:00 clear sky 28.020 28.020 28.020 34 2.99 m/h 0 %
01-Oct-2022 (Sat)
02:00:00 clear sky 26.490 26.490 26.490 38 3.12 m/h 0 %
05:00:00 clear sky 24.920 24.920 24.920 44 0.97 m/h 0 %
08:00:00 clear sky 29.120 29.120 29.120 34 2.78 m/h 0 %

Famous Cities (61)